»·PEaware :: N1JG KASE-KTEX

N1JG :: KASE-KTEX

FLIGHT INFORMATION

Flight Status: Arrived
Operator: Privately registered:
United States
More flights under this callsign
Pilot: Josh G. (4619)
Aircraft: Unknown
(SF50)
More flights by this aircraft type
Origin: KASE Aspen-Pitkin Co/Sardy
United States
Destination: KTEX Telluride Regl
United States
More flights between these airports :: More routes between these airports
Route: LINDZ8 JNC ETL
File this flight plan on PilotEdge
Remarks:
Altitude:
(Current/Filed)
18,000ft
Speed:
(Current/Filed)
290kts
Departed: 12-Oct-17 08:58 PM
Arrived: 12-Oct-17 09:38 PM
Distance/Time
Traveled:
90nm/0:39
Distance/Time
To Go:
Arrived

Flight Plot

Page will automatically refresh every two minutes.

Flight plan parsing failed; only flown route is shown


Map Options




Map Legend


Flown Route
Filed Route
Departure Airport
Arrival Airport
Navaid (VOR, NDB)
Fix

Horizontal Profiles

Position Reports

Time Latitude Longitude Heading Altitude Ground
Speed
12-Oct-17 20:49 39.225002 -106.867990 246 7777ft 0kts
12-Oct-17 20:50 39.225002 -106.867990 246 7777ft 0kts
12-Oct-17 20:51 39.225002 -106.867990 246 7777ft 0kts
12-Oct-17 20:52 39.225002 -106.867990 246 7777ft 0kts
12-Oct-17 20:53 39.225002 -106.867990 246 7777ft 0kts
12-Oct-17 20:54 39.225002 -106.867990 246 7777ft 0kts
12-Oct-17 20:55 39.225002 -106.867990 246 7777ft 0kts
12-Oct-17 20:56 39.225002 -106.867990 246 7777ft 0kts
12-Oct-17 20:57 39.224978 -106.868040 231 7777ft 1kts
12-Oct-17 20:58 39.223321 -106.867523 160 7777ft 12kts
12-Oct-17 20:59 39.219981 -106.865939 162 7777ft 12kts
12-Oct-17 21:00 39.216534 -106.864289 160 7777ft 13kts
12-Oct-17 21:01 39.212815 -106.862525 161 7777ft 13kts
12-Oct-17 21:02 39.220666 -106.867473 339 7778ft 106kts
12-Oct-17 21:03 39.257281 -106.876191 353 8863ft 161kts
12-Oct-17 21:04 39.279950 -106.923975 281 10413ft 193kts
12-Oct-17 21:05 39.292328 -106.997031 280 11843ft 226kts
12-Oct-17 21:06 39.317665 -107.064753 311 14214ft 201kts
12-Oct-17 21:07 39.361839 -107.123096 313 15170ft 241kts
12-Oct-17 21:08 39.379612 -107.197555 257 16625ft 240kts
12-Oct-17 21:09 39.365006 -107.279679 255 18021ft 240kts
12-Oct-17 21:10 39.347493 -107.370093 255 18140ft 282kts
12-Oct-17 21:11 39.328401 -107.467604 255 18125ft 272kts
12-Oct-17 21:12 39.311680 -107.552555 255 18132ft 240kts
12-Oct-17 21:13 39.295370 -107.635431 253 18090ft 241kts
12-Oct-17 21:14 39.253667 -107.678575 206 17959ft 233kts
12-Oct-17 21:15 39.195268 -107.705804 208 17919ft 229kts
12-Oct-17 21:16 39.135593 -107.735058 202 18072ft 241kts
12-Oct-17 21:17 39.070717 -107.766251 201 18135ft 261kts
12-Oct-17 21:18 39.002914 -107.799069 202 18133ft 264kts
12-Oct-17 21:19 38.936381 -107.830970 208 18008ft 256kts
12-Oct-17 21:20 38.877395 -107.859703 208 17896ft 246kts
12-Oct-17 21:21 38.822779 -107.886046 208 17892ft 233kts
12-Oct-17 21:22 38.764891 -107.913915 208 17892ft 226kts
12-Oct-17 21:23 38.708648 -107.940940 208 17892ft 223kts
12-Oct-17 21:24 38.651433 -107.968392 208 17893ft 225kts
12-Oct-17 21:25 38.592954 -107.996385 208 17892ft 228kts
12-Oct-17 21:26 38.534592 -108.024267 208 17918ft 228kts
12-Oct-17 21:27 38.475302 -108.052554 208 17918ft 229kts
12-Oct-17 21:28 38.426345 -108.091635 259 17932ft 212kts
12-Oct-17 21:29 38.399052 -108.156281 214 17936ft 224kts
12-Oct-17 21:30 38.339895 -108.177221 201 18427ft 218kts
12-Oct-17 21:31 38.279201 -108.193825 200 17868ft 243kts
12-Oct-17 21:32 38.214442 -108.211395 200 16367ft 240kts
12-Oct-17 21:33 38.149695 -108.229060 191 14869ft 243kts
12-Oct-17 21:34 38.085183 -108.246452 190 13937ft 225kts
12-Oct-17 21:36 38.024444 -108.256406 144 13030ft 215kts
12-Oct-17 21:37 38.013102 -108.186801 101 12164ft 205kts
12-Oct-17 21:38 37.999715 -108.117041 106 12084ft 214kts
12-Oct-17 21:39 37.982484 -108.042904 106 11173ft 217kts
12-Oct-17 21:40 37.968853 -107.977716 104 10113ft 170kts
12-Oct-17 21:41 37.959634 -107.935837 105 9318ft 87kts
12-Oct-17 21:42 37.954129 -107.910193 104 9060ft 52kts
12-Oct-17 21:43 37.953687 -107.902233 275 9060ft 15kts
12-Oct-17 21:44 37.954267 -107.903258 105 9060ft 0kts

Navigation Log

Ident Type
Flight plan parsing failed, navigation log unavailable